Time;durP1;ratioP1;P1;durP2;ratioP2;P2;SDS_P1;SDS_P2;PMS_P1;PMS_P2;Temp;Humidity;BMP_temperature;BMP_pressure;BME280_temperature;BME280_humidity;BME280_pressure;Samples;Min_cycle;Max_cycle;Signal;HPM_P1;HPM_P2
2021/07/14 00:00:18;;;;;;;34.13;20.55;;;;;;;18.94;84.55;100993.25;5074143;28;20057;-54
2021/07/14 00:02:47;;;;;;;31.35;18.50;;;;;;;18.93;84.72;101000.72;5074207;28;20530;-51
2021/07/14 00:05:18;;;;;;;30.35;19.52;;;;;;;18.92;84.76;101006.56;5073684;28;20056;-52
2021/07/14 00:07:47;;;;;;;30.63;19.75;;;;;;;18.90;84.89;101003.28;5073708;28;20060;-55
2021/07/14 00:10:22;;;;;;;31.38;19.40;;;;;;;18.88;84.72;101002.78;5073792;28;20487;-54
2021/07/14 00:13:03;;;;;;;33.13;20.08;;;;;;;18.89;84.75;100994.19;5073521;28;20055;-53
2021/07/14 00:23:33;;;;;;;32.63;19.35;;;;;;;18.90;84.78;100989.47;5073581;28;20044;-52
2021/07/14 00:26:01;;;;;;;31.85;19.70;;;;;;;18.88;84.95;100980.69;5073839;28;20046;-51
2021/07/14 00:28:28;;;;;;;33.50;20.60;;;;;;;18.88;84.78;100981.53;5065585;28;20256;-54
2021/07/14 00:30:59;;;;;;;27.80;19.38;;;;;;;18.88;84.81;100973.25;5073741;28;20044;-55
2021/07/14 00:33:27;;;;;;;30.60;19.55;;;;;;;18.85;84.95;100975.81;5073340;28;20548;-55
2021/07/14 00:35:55;;;;;;;32.45;20.15;;;;;;;18.81;85.13;100969.31;5072945;28;20048;-54
2021/07/14 00:38:26;;;;;;;28.20;19.05;;;;;;;18.79;85.13;100961.38;5073114;28;20102;-54
2021/07/14 00:40:53;;;;;;;35.45;23.38;;;;;;;18.78;85.23;100970.75;5073588;28;20047;-55
2021/07/14 00:43:21;;;;;;;31.27;19.63;;;;;;;18.77;85.33;100965.59;5072982;28;20048;-56
2021/07/14 00:45:48;;;;;;;33.28;21.55;;;;;;;18.73;85.21;100970.88;5073038;28;20044;-54
2021/07/14 00:48:24;;;;;;;34.42;21.75;;;;;;;18.72;85.58;100967.31;5073090;28;20070;-57
2021/07/14 00:50:52;;;;;;;33.13;21.40;;;;;;;18.75;85.30;100976.91;5055237;28;20059;-53
2021/07/14 00:53:20;;;;;;;33.53;21.13;;;;;;;18.75;85.44;100971.38;5054945;28;20133;-51
2021/07/14 00:55:47;;;;;;;43.47;22.92;;;;;;;18.74;85.21;100969.78;5055125;28;20040;-53
2021/07/14 00:58:15;;;;;;;38.25;21.45;;;;;;;18.71;85.37;100964.88;5073050;28;20407;-52
2021/07/14 01:00:42;;;;;;;31.60;21.35;;;;;;;18.68;85.27;100965.50;5072972;28;20041;-52
2021/07/14 01:03:12;;;;;;;35.00;22.20;;;;;;;18.67;85.55;100967.47;5054852;28;20044;-51
2021/07/14 01:05:42;;;;;;;39.85;20.65;;;;;;;18.68;85.48;100971.84;5053464;28;20437;-53
2021/07/14 01:08:37;;;;;;;40.25;22.77;;;;;;;18.65;85.55;100978.00;5054665;28;20415;-52
2021/07/14 01:11:08;;;;;;;37.40;22.15;;;;;;;18.66;85.73;100985.13;5054754;28;20052;-53
2021/07/14 01:14:06;;;;;;;36.25;22.38;;;;;;;18.65;85.62;100988.25;5054581;28;20052;-53
2021/07/14 01:16:44;;;;;;;41.53;23.38;;;;;;;18.59;85.98;100987.56;5068715;28;20053;-52
2021/07/14 01:19:42;;;;;;;37.47;22.40;;;;;;;18.60;86.02;100989.19;5054502;28;20110;-51
2021/07/14 01:22:45;;;;;;;42.67;23.58;;;;;;;18.62;85.88;100989.69;5061299;28;20043;-54
2021/07/14 01:25:40;;;;;;;41.60;23.13;;;;;;;18.60;86.09;100980.91;4990818;28;20038;-54
2021/07/14 01:28:08;;;;;;;35.50;23.17;;;;;;;18.58;86.11;100985.94;4990704;28;20034;-54
2021/07/14 01:30:36;;;;;;;34.53;22.48;;;;;;;18.59;86.13;100978.47;4990983;28;20054;-50
2021/07/14 01:33:04;;;;;;;37.80;22.90;;;;;;;18.62;86.04;100989.69;4990793;28;20057;-51
2021/07/14 01:35:34;;;;;;;37.47;22.40;;;;;;;18.63;85.84;101001.53;4990432;28;20046;-52
2021/07/14 01:38:02;;;;;;;36.10;22.75;;;;;;;18.61;86.45;100998.28;4974719;28;20489;-50
2021/07/14 01:40:31;;;;;;;33.20;21.30;;;;;;;18.61;86.18;100988.03;4958595;28;20038;-53
2021/07/14 01:43:00;;;;;;;40.45;22.92;;;;;;;18.63;86.11;100996.81;4974607;28;20062;-52
2021/07/14 01:45:33;;;;;;;33.70;21.27;;;;;;;18.63;86.08;100999.59;4990557;28;20038;-55
2021/07/14 01:48:02;;;;;;;37.25;22.38;;;;;;;18.64;86.06;101003.16;4958326;28;20125;-55
2021/07/14 01:50:32;;;;;;;38.70;21.98;;;;;;;18.63;86.16;100999.59;4990096;28;20462;-52
2021/07/14 01:53:00;;;;;;;35.45;21.60;;;;;;;18.64;86.22;100998.47;4974615;28;20410;-51
2021/07/14 01:55:29;;;;;;;45.65;23.65;;;;;;;18.63;86.00;100987.75;4974285;28;20500;-54
2021/07/14 01:57:58;;;;;;;36.55;21.58;;;;;;;18.62;86.17;100988.88;4974763;28;20539;-54
2021/07/14 02:00:27;;;;;;;36.63;21.50;;;;;;;18.59;86.40;100971.03;4990460;28;20046;-54
2021/07/14 02:03:08;;;;;;;33.22;21.42;;;;;;;18.61;86.43;100965.16;5033912;28;20064;-54
2021/07/14 02:05:38;;;;;;;35.15;22.67;;;;;;;18.57;86.56;100965.00;5055245;28;20487;-55
2021/07/14 02:08:07;;;;;;;34.80;21.00;;;;;;;18.56;86.56;100968.88;5054180;28;20043;-54
2021/07/14 02:10:36;;;;;;;35.55;22.05;;;;;;;18.53;86.90;100970.31;5037669;28;20052;-54
2021/07/14 02:13:04;;;;;;;35.33;23.05;;;;;;;18.46;86.99;100963.66;5053999;28;20052;-53
2021/07/14 02:15:32;;;;;;;38.22;22.70;;;;;;;18.45;87.45;100953.75;5071675;28;20064;-51
2021/07/14 02:18:08;;;;;;;35.05;21.50;;;;;;;18.48;87.41;100953.09;5072837;28;20533;-50
2021/07/14 02:20:36;;;;;;;32.38;20.80;;;;;;;18.49;87.27;100955.53;5058494;28;20419;-49
2021/07/14 02:23:05;;;;;;;34.22;22.17;;;;;;;18.48;87.38;100964.16;5075781;28;20044;-52
2021/07/14 02:25:33;;;;;;;36.72;23.33;;;;;;;18.48;87.43;100961.38;5075816;28;20040;-51
2021/07/14 02:28:02;;;;;;;36.65;22.85;;;;;;;18.44;87.70;100963.16;5075995;28;20159;-49
2021/07/14 02:30:29;;;;;;;33.40;21.17;;;;;;;18.43;87.86;100961.53;5075636;28;20514;-51
2021/07/14 02:33:04;;;;;;;39.85;23.08;;;;;;;18.42;88.17;100966.22;5075355;28;20597;-53
2021/07/14 02:35:37;;;;;;;34.58;22.13;;;;;;;18.39;88.47;100963.28;5054642;28;20052;-53
2021/07/14 02:38:19;;;;;;;34.97;21.50;;;;;;;18.38;88.56;100964.44;5075967;28;20055;-52
2021/07/14 02:41:17;;;;;;;34.53;21.30;;;;;;;18.34;88.78;100961.47;5064111;28;20064;-52
2021/07/14 02:43:51;;;;;;;28.15;20.88;;;;;;;18.26;89.02;100960.31;5057809;28;20502;-53
2021/07/14 02:46:27;;;;;;;33.60;20.55;;;;;;;18.22;89.45;100959.31;5057489;28;20045;-51
2021/07/14 02:48:59;;;;;;;27.83;19.38;;;;;;;18.24;89.53;100946.00;5074978;28;20122;-53
2021/07/14 02:51:30;;;;;;;29.15;19.60;;;;;;;18.25;89.69;100949.56;5057785;28;20522;-53
2021/07/14 02:54:02;;;;;;;28.13;18.38;;;;;;;18.23;89.75;100944.41;5057512;28;20040;-55
2021/07/14 02:56:30;;;;;;;26.35;16.92;;;;;;;18.23;89.65;100941.63;5057856;28;20051;-52
2021/07/14 02:59:05;;;;;;;22.52;15.82;;;;;;;18.22;89.67;100947.47;5040449;28;20040;-49
2021/07/14 03:01:34;;;;;;;24.10;15.48;;;;;;;18.24;89.81;100950.72;5056226;28;20521;-52
2021/07/14 03:04:02;;;;;;;23.60;15.50;;;;;;;18.24;89.77;100957.03;5057246;28;20449;-54
2021/07/14 03:06:33;;;;;;;23.98;16.35;;;;;;;18.23;89.68;100952.69;5057189;28;20057;-54
2021/07/14 03:09:05;;;;;;;22.60;15.75;;;;;;;18.21;89.81;100938.38;5090676;28;20052;-52
2021/07/14 03:11:41;;;;;;;22.73;16.98;;;;;;;18.18;89.92;100952.78;5074866;28;20067;-53
2021/07/14 03:14:13;;;;;;;24.23;15.80;;;;;;;18.20;89.98;100947.78;5074905;28;20044;-53
2021/07/14 03:16:41;;;;;;;25.35;15.95;;;;;;;18.24;90.00;100957.03;5074142;28;20068;-52
2021/07/14 03:19:11;;;;;;;26.60;17.80;;;;;;;18.23;89.95;100949.91;5090501;28;20102;-52
2021/07/14 03:21:39;;;;;;;25.35;17.17;;;;;;;18.24;89.87;100946.00;5075066;28;20048;-52
2021/07/14 03:24:07;;;;;;;24.45;17.05;;;;;;;18.26;89.90;100946.50;5062657;28;20048;-56
2021/07/14 03:26:37;;;;;;;27.35;17.63;;;;;;;18.28;89.68;100948.97;5075187;28;20048;-55
2021/07/14 03:29:05;;;;;;;25.77;16.95;;;;;;;18.22;89.71;100942.75;5088978;28;20092;-55
2021/07/14 03:31:33;;;;;;;29.02;18.85;;;;;;;18.21;90.05;100946.66;5056857;28;20376;-55
2021/07/14 03:34:01;;;;;;;28.02;18.85;;;;;;;18.17;90.03;100950.38;5057103;28;20102;-56
2021/07/14 03:36:29;;;;;;;31.45;19.08;;;;;;;18.15;90.16;100941.59;5090182;28;20037;-56
2021/07/14 03:38:57;;;;;;;28.40;18.70;;;;;;;18.12;90.37;100942.22;5078045;28;20037;-56
2021/07/14 03:41:24;;;;;;;28.33;19.80;;;;;;;18.13;90.19;100950.16;5090042;28;20044;-55
2021/07/14 03:43:54;;;;;;;32.60;19.75;;;;;;;18.11;90.66;100952.41;5089939;28;20107;-53
2021/07/14 03:46:22;;;;;;;32.08;19.80;;;;;;;18.13;90.54;100944.66;5074017;28;20048;-55
2021/07/14 03:48:52;;;;;;;30.33;20.13;;;;;;;18.13;90.21;100946.59;5074860;28;20476;-56
2021/07/14 03:51:23;;;;;;;28.27;19.48;;;;;;;18.08;90.34;100947.53;5074707;28;20048;-55
2021/07/14 03:53:54;;;;;;;31.05;19.65;;;;;;;18.07;90.46;100945.94;5074971;28;20142;-55
2021/07/14 03:56:23;;;;;;;35.58;21.20;;;;;;;18.04;90.32;100947.38;5057267;28;20046;-57
2021/07/14 03:58:52;;;;;;;28.23;20.15;;;;;;;18.04;90.51;100952.88;5056976;28;20395;-54
2021/07/14 04:01:20;;;;;;;33.45;20.55;;;;;;;18.05;90.37;100948.19;5073602;28;20053;-53
2021/07/14 04:03:47;;;;;;;27.95;18.52;;;;;;;18.10;90.57;100943.34;5073773;28;20407;-53
2021/07/14 04:06:15;;;;;;;32.65;19.38;;;;;;;18.15;90.53;100945.16;5072192;28;20400;-55
2021/07/14 04:08:45;;;;;;;32.45;19.80;;;;;;;18.13;90.20;100941.88;5056263;28;20045;-54
2021/07/14 04:11:13;;;;;;;29.33;19.15;;;;;;;18.12;90.34;100947.75;5074036;28;20049;-55
2021/07/14 04:13:41;;;;;;;28.55;18.73;;;;;;;18.08;90.45;100942.03;5073717;28;20040;-52
2021/07/14 04:16:09;;;;;;;28.98;18.10;;;;;;;18.10;90.55;100939.78;5073183;28;20055;-54
2021/07/14 04:18:37;;;;;;;27.20;19.35;;;;;;;18.12;90.24;100943.03;5073804;28;20124;-53
2021/07/14 04:21:05;;;;;;;32.50;18.25;;;;;;;18.13;90.22;100939.13;5073650;28;20047;-52
2021/07/14 04:23:33;;;;;;;31.67;18.60;;;;;;;18.14;90.28;100940.78;5055511;28;20407;-52
2021/07/14 04:26:00;;;;;;;32.75;19.30;;;;;;;18.12;90.10;100933.94;5073787;28;20491;-55
2021/07/14 04:28:28;;;;;;;31.10;18.55;;;;;;;18.13;90.35;100932.81;5072946;28;20041;-51
2021/07/14 04:30:55;;;;;;;29.45;18.70;;;;;;;18.11;90.44;100941.38;5073509;28;20090;-54
2021/07/14 04:33:23;;;;;;;33.35;18.00;;;;;;;18.11;90.32;100941.38;5073498;28;20512;-55
2021/07/14 04:35:50;;;;;;;27.10;17.33;;;;;;;18.11;90.35;100933.13;5073573;28;20430;-56
2021/07/14 04:38:18;;;;;;;26.58;18.08;;;;;;;18.09;90.42;100932.66;5073411;28;20059;-53
2021/07/14 04:40:45;;;;;;;28.08;20.30;;;;;;;18.03;90.76;100922.88;5073042;28;20040;-55
2021/07/14 04:43:13;;;;;;;28.70;18.20;;;;;;;18.04;90.75;100930.03;5072688;28;20084;-53
2021/07/14 04:45:41;;;;;;;27.40;17.20;;;;;;;18.05;90.84;100934.41;5072838;28;20063;-53
2021/07/14 04:48:09;;;;;;;28.90;18.38;;;;;;;18.05;90.88;100931.63;5073477;28;20545;-56
2021/07/14 04:50:36;;;;;;;27.77;16.73;;;;;;;18.06;91.09;100928.56;5072988;28;20044;-52
2021/07/14 04:53:04;;;;;;;28.38;18.65;;;;;;;18.07;90.85;100937.66;5073337;28;20487;-55
2021/07/14 04:55:31;;;;;;;26.77;17.42;;;;;;;18.10;90.85;100935.06;5073029;28;20045;-52
2021/07/14 04:57:59;;;;;;;29.25;16.65;;;;;;;18.13;90.73;100933.63;5072574;28;20036;-52
2021/07/14 05:00:26;;;;;;;26.92;17.35;;;;;;;18.14;90.54;100926.19;5072798;28;20040;-52
2021/07/14 05:02:54;;;;;;;25.55;17.30;;;;;;;18.15;90.66;100934.13;5072897;28;20044;-53
2021/07/14 05:05:22;;;;;;;25.90;17.50;;;;;;;18.15;90.62;100936.88;5072584;28;20068;-53
2021/07/14 05:07:50;;;;;;;25.08;17.23;;;;;;;18.11;90.53;100933.13;5054741;28;20045;-49
2021/07/14 05:10:24;;;;;;;23.77;16.85;;;;;;;18.11;90.49;100935.88;5072992;28;20040;-51
2021/07/14 05:12:52;;;;;;;29.05;18.48;;;;;;;18.10;90.54;100939.78;5087782;28;20056;-51
2021/07/14 05:15:19;;;;;;;26.10;17.52;;;;;;;18.09;90.63;100938.16;5088033;28;20048;-51
2021/07/14 05:17:47;;;;;;;24.77;16.52;;;;;;;18.06;90.48;100945.13;5072865;28;20398;-54
2021/07/14 05:20:14;;;;;;;25.05;17.02;;;;;;;18.06;90.68;100949.78;5072459;28;20044;-53
2021/07/14 05:22:42;;;;;;;26.98;16.80;;;;;;;18.05;90.71;100948.19;5054767;28;20052;-53
2021/07/14 05:25:10;;;;;;;25.90;17.27;;;;;;;18.06;90.59;100947.88;5072579;28;20033;-49
2021/07/14 05:27:38;;;;;;;26.52;16.73;;;;;;;18.07;90.48;100951.44;5071574;28;20055;-51
2021/07/14 05:30:07;;;;;;;22.50;16.70;;;;;;;18.05;90.76;100948.19;5072125;28;20044;-51
2021/07/14 05:32:35;;;;;;;24.25;16.67;;;;;;;18.04;90.96;100952.88;5072660;28;20054;-54
2021/07/14 05:35:05;;;;;;;22.65;16.67;;;;;;;18.07;90.86;100955.00;5072108;28;20036;-50
2021/07/14 05:37:33;;;;;;;24.52;16.45;;;;;;;18.04;90.76;100957.59;5072041;28;20044;-53
2021/07/14 05:40:01;;;;;;;23.75;16.17;;;;;;;18.01;90.83;100963.72;5072098;28;20036;-56
2021/07/14 05:42:28;;;;;;;25.23;17.75;;;;;;;18.01;90.85;100966.47;5071683;28;20045;-54
2021/07/14 05:44:56;;;;;;;25.05;16.35;;;;;;;18.04;90.87;100971.38;5071920;28;20041;-52
2021/07/14 05:47:24;;;;;;;25.42;15.82;;;;;;;18.07;90.83;100979.03;5071838;28;20051;-53
2021/07/14 05:49:51;;;;;;;29.67;17.63;;;;;;;18.07;90.76;100974.31;5072204;28;20111;-52
2021/07/14 05:52:19;;;;;;;24.40;17.90;;;;;;;18.06;90.48;100983.72;5071308;28;20506;-53
2021/07/14 05:54:46;;;;;;;25.23;16.42;;;;;;;18.08;90.74;100984.19;5071788;28;20062;-56
2021/07/14 05:57:14;;;;;;;28.65;18.60;;;;;;;18.08;90.41;100986.16;5071338;28;20040;-53
2021/07/14 05:59:41;;;;;;;25.10;17.30;;;;;;;18.06;90.64;100985.63;5072027;28;20051;-51
2021/07/14 06:02:09;;;;;;;25.52;17.20;;;;;;;18.07;90.47;100979.03;5072239;28;20407;-55
2021/07/14 06:04:36;;;;;;;24.70;17.73;;;;;;;18.07;90.23;100985.34;5059863;28;20040;-57
2021/07/14 06:07:04;;;;;;;25.10;18.88;;;;;;;18.03;90.47;100987.09;5071965;28;20052;-54
2021/07/14 06:09:32;;;;;;;26.00;17.63;;;;;;;18.04;90.69;100990.69;5071423;28;20059;-55
2021/07/14 06:12:00;;;;;;;27.85;17.92;;;;;;;18.07;90.69;100990.84;5071578;28;20036;-53
2021/07/14 06:14:27;;;;;;;27.77;16.90;;;;;;;18.08;90.76;100989.72;5071811;28;20059;-56
2021/07/14 06:16:55;;;;;;;27.95;17.38;;;;;;;18.11;90.59;100985.50;5071671;28;20059;-56
2021/07/14 06:19:25;;;;;;;25.25;17.92;;;;;;;18.11;90.53;100985.50;5071853;28;20048;-55
2021/07/14 06:21:53;;;;;;;26.75;18.35;;;;;;;18.09;90.74;100985.03;5071735;28;20028;-56
2021/07/14 06:24:21;;;;;;;29.17;21.02;;;;;;;18.08;90.61;100986.16;5071133;28;20055;-57
2021/07/14 06:27:08;;;;;;;30.20;18.73;;;;;;;18.07;90.92;100988.09;5071620;28;20092;-51
2021/07/14 06:29:36;;;;;;;25.92;18.30;;;;;;;18.09;90.77;100998.81;5053875;28;20041;-56
2021/07/14 06:32:23;;;;;;;30.52;19.23;;;;;;;18.12;90.72;100991.88;5071991;28;20041;-56
2021/07/14 06:34:51;;;;;;;29.88;19.23;;;;;;;18.14;90.60;100993.19;5071559;28;20037;-56
2021/07/14 06:37:18;;;;;;;27.80;18.67;;;;;;;18.15;90.57;100991.22;5071624;28;20044;-55
2021/07/14 06:39:46;;;;;;;32.33;18.83;;;;;;;18.13;90.60;100988.78;5071279;28;20041;-53
2021/07/14 06:42:14;;;;;;;26.80;20.30;;;;;;;18.08;90.62;100991.66;4718670;28;10000661;-56
2021/07/14 06:44:42;;;;;;;28.80;19.45;;;;;;;18.06;90.82;100980.13;5069417;28;20058;-54
2021/07/14 06:47:10;;;;;;;30.52;18.83;;;;;;;18.07;90.96;100990.03;5069277;28;20044;-58
2021/07/14 06:49:37;;;;;;;30.70;19.95;;;;;;;18.05;91.07;100986.78;5051448;28;20094;-53
2021/07/14 06:52:05;;;;;;;29.42;18.60;;;;;;;18.06;91.05;100986.47;5069524;28;20052;-54
2021/07/14 06:54:32;;;;;;;28.55;19.70;;;;;;;18.07;90.82;100990.03;5068610;28;20395;-55
2021/07/14 06:57:00;;;;;;;28.77;20.30;;;;;;;18.03;90.89;100989.84;5069495;28;20044;-56
2021/07/14 06:59:29;;;;;;;27.60;19.52;;;;;;;18.03;91.17;100989.84;5061109;28;20521;-54
2021/07/14 07:01:57;;;;;;;26.90;19.88;;;;;;;18.05;91.25;100995.06;5069660;28;20053;-57
2021/07/14 07:04:25;;;;;;;33.00;22.13;;;;;;;18.02;91.27;100990.19;5071006;28;20048;-54
2021/07/14 07:06:52;;;;;;;33.55;21.05;;;;;;;18.01;91.28;100997.63;5072528;28;20586;-54
2021/07/14 07:09:21;;;;;;;30.17;20.23;;;;;;;18.00;91.20;100995.19;5072694;28;20048;-57
2021/07/14 07:11:49;;;;;;;29.58;20.48;;;;;;;18.02;91.01;100990.19;5083264;28;20398;-53
2021/07/14 07:14:18;;;;;;;26.23;19.08;;;;;;;18.04;91.32;100997.00;5072759;28;20049;-55
2021/07/14 07:16:45;;;;;;;27.50;19.23;;;;;;;18.06;91.29;100996.66;5082155;28;20154;-57
2021/07/14 07:19:13;;;;;;;31.27;21.40;;;;;;;18.04;91.34;101001.72;5072830;28;20491;-54
2021/07/14 07:21:40;;;;;;;29.30;21.88;;;;;;;18.03;91.20;100989.03;5072200;28;20068;-54
2021/07/14 07:24:08;;;;;;;28.27;20.35;;;;;;;18.02;91.40;100988.22;5072659;28;20040;-55
2021/07/14 07:26:36;;;;;;;34.15;20.95;;;;;;;18.03;91.38;100986.28;5072618;28;20047;-55
2021/07/14 07:29:11;;;;;;;27.75;19.23;;;;;;;18.05;91.53;100992.28;5072166;28;20045;-55
2021/07/14 07:31:39;;;;;;;27.70;19.95;;;;;;;18.06;91.09;100988.41;5072163;28;20048;-53
2021/07/14 07:34:07;;;;;;;27.48;18.63;;;;;;;18.08;91.04;100991.66;5052906;28;20086;-58
2021/07/14 07:36:35;;;;;;;26.17;19.10;;;;;;;18.06;91.33;100983.72;5074400;28;20032;-52
2021/07/14 07:39:04;;;;;;;26.42;19.15;;;;;;;18.05;91.06;100992.28;5074254;28;20468;-51
2021/07/14 07:41:32;;;;;;;30.75;21.98;;;;;;;18.05;91.10;100992.28;5074459;28;20043;-56
2021/07/14 07:44:04;;;;;;;28.48;19.40;;;;;;;18.04;91.03;100980.47;5073984;28;20036;-54
2021/07/14 07:46:35;;;;;;;30.00;21.52;;;;;;;18.04;90.95;100980.47;5074574;28;20052;-50
2021/07/14 07:49:04;;;;;;;26.40;19.38;;;;;;;17.98;90.84;100987.22;5074391;28;20064;-55
2021/07/14 07:51:32;;;;;;;26.73;20.70;;;;;;;17.97;90.92;100985.59;5073729;28;20526;-54
2021/07/14 07:54:00;;;;;;;28.88;21.52;;;;;;;17.96;90.65;100991.41;5074206;28;20044;-54
2021/07/14 07:56:31;;;;;;;29.58;19.40;;;;;;;17.95;90.55;100987.03;5074331;28;20040;-53
2021/07/14 07:58:59;;;;;;;27.20;19.83;;;;;;;17.93;90.70;101005.84;5073941;28;20041;-54
2021/07/14 08:01:27;;;;;;;31.73;21.27;;;;;;;17.94;90.49;101000.00;5074370;28;20049;-57
2021/07/14 08:03:55;;;;;;;26.73;19.63;;;;;;;17.93;90.44;100992.88;5074141;28;20613;-51
2021/07/14 08:06:23;;;;;;;28.05;20.58;;;;;;;17.95;90.49;101000.84;5073507;28;20063;-53
2021/07/14 08:08:50;;;;;;;27.25;21.48;;;;;;;17.94;90.29;101002.75;5073686;28;20044;-53
2021/07/14 08:11:18;;;;;;;25.23;18.58;;;;;;;17.97;90.49;100998.59;5073910;28;20043;-53
2021/07/14 08:13:46;;;;;;;27.30;20.92;;;;;;;17.97;90.26;101006.84;5083443;28;20650;-56
2021/07/14 08:16:14;;;;;;;24.67;18.65;;;;;;;17.96;90.54;100996.94;5073183;28;20398;-54
2021/07/14 08:18:42;;;;;;;26.45;19.58;;;;;;;17.93;90.25;101003.09;5073899;28;20040;-53
2021/07/14 08:21:09;;;;;;;28.92;20.05;;;;;;;17.88;90.12;100996.56;5073102;28;20486;-55
2021/07/14 08:23:37;;;;;;;31.40;22.10;;;;;;;17.85;90.24;101010.97;5051255;28;20041;-54
2021/07/14 08:26:05;;;;;;;29.55;22.42;;;;;;;17.82;89.96;100995.06;5068547;28;20048;-53
2021/07/14 08:28:32;;;;;;;34.67;23.63;;;;;;;17.79;90.18;101006.66;5073546;28;20037;-53
2021/07/14 08:31:05;;;;;;;40.30;28.95;;;;;;;17.67;90.20;101026.50;5073441;28;20052;-55
2021/07/14 08:33:32;;;;;;;38.65;26.30;;;;;;;17.61;90.56;100993.91;5073413;28;20071;-55
2021/07/14 08:36:01;;;;;;;37.50;25.25;;;;;;;17.67;90.83;100989.88;5072663;28;20032;-55
2021/07/14 08:38:29;;;;;;;38.13;22.83;;;;;;;17.70;90.68;100999.47;5073210;28;20098;-53
2021/07/14 08:40:58;;;;;;;34.55;23.80;;;;;;;17.71;90.56;100993.66;5073170;28;20047;-54
2021/07/14 08:43:31;;;;;;;39.58;26.40;;;;;;;17.71;90.71;100999.16;5073358;28;20045;-56
2021/07/14 08:45:59;;;;;;;35.00;24.25;;;;;;;17.71;90.68;101004.66;5065613;28;20043;-56
2021/07/14 08:48:28;;;;;;;38.08;25.92;;;;;;;17.70;90.62;100996.69;5072961;28;20040;-53
2021/07/14 08:50:59;;;;;;;36.13;24.77;;;;;;;17.73;90.67;100991.41;5072595;28;20119;-54
2021/07/14 08:53:29;;;;;;;35.55;25.75;;;;;;;17.74;90.52;100993.00;5072594;28;20048;-56
2021/07/14 08:55:58;;;;;;;36.40;25.80;;;;;;;17.73;90.38;100994.16;5072962;28;20090;-55
2021/07/14 08:58:26;;;;;;;38.13;25.30;;;;;;;17.72;90.43;100984.25;5073040;28;20028;-53
2021/07/14 09:00:55;;;;;;;37.83;25.02;;;;;;;17.73;90.51;100987.84;5072678;28;20514;-51
2021/07/14 09:03:24;;;;;;;37.75;24.58;;;;;;;17.69;90.50;100987.63;5049808;28;20053;-56
2021/07/14 09:05:51;;;;;;;37.20;25.20;;;;;;;17.67;90.46;100984.38;5072199;28;20055;-53
2021/07/14 09:08:19;;;;;;;37.17;24.83;;;;;;;17.67;90.89;100992.63;5072443;28;20388;-56
2021/07/14 09:10:47;;;;;;;38.63;27.02;;;;;;;17.63;90.64;100980.59;5072465;28;20092;-55
2021/07/14 09:13:15;;;;;;;37.45;24.90;;;;;;;17.66;91.04;100980.00;5072981;28;20449;-55
2021/07/14 09:15:51;;;;;;;41.28;27.02;;;;;;;17.66;90.80;100986.31;5073031;28;20079;-56
2021/07/14 09:18:24;;;;;;;39.45;25.63;;;;;;;17.66;91.22;100978.03;5071978;28;20655;-57
2021/07/14 09:20:52;;;;;;;38.03;24.90;;;;;;;17.69;91.10;100984.88;5072630;28;20094;-55
2021/07/14 09:23:22;;;;;;;36.75;25.48;;;;;;;17.63;90.84;100986.94;5071524;28;20040;-51
2021/07/14 09:25:54;;;;;;;42.20;28.08;;;;;;;17.64;90.99;100996.81;5072502;28;20041;-55
2021/07/14 09:28:32;;;;;;;42.00;28.17;;;;;;;17.63;90.90;100991.63;5071597;28;20041;-55
2021/07/14 09:31:02;;;;;;;35.90;25.92;;;;;;;17.64;91.06;100998.78;5072152;28;20047;-55
2021/07/14 09:33:30;;;;;;;41.25;27.67;;;;;;;17.64;91.16;100996.03;5045848;28;20495;-54
2021/07/14 09:35:59;;;;;;;43.67;29.33;;;;;;;17.63;91.08;100992.44;5072080;28;20048;-56
2021/07/14 09:38:29;;;;;;;40.38;27.25;;;;;;;17.62;91.03;100988.06;5072338;28;20117;-50
2021/07/14 09:41:09;;;;;;;38.97;26.77;;;;;;;17.58;90.80;100988.97;5072058;28;20070;-53
2021/07/14 09:43:42;;;;;;;36.67;26.73;;;;;;;17.60;91.04;100986.72;5072155;28;20067;-56
2021/07/14 09:46:12;;;;;;;33.70;24.55;;;;;;;17.61;90.81;100986.44;5071901;28;20037;-58
2021/07/14 09:48:46;;;;;;;36.45;25.05;;;;;;;17.66;90.73;100993.78;5072000;28;20051;-54
2021/07/14 09:51:19;;;;;;;32.40;23.97;;;;;;;17.70;90.89;100989.25;5072081;28;20407;-53
2021/07/14 09:53:52;;;;;;;35.33;25.92;;;;;;;17.68;90.49;100999.78;5070821;28;20056;-52
2021/07/14 09:56:22;;;;;;;32.85;23.13;;;;;;;17.70;90.58;100997.50;5071574;28;20086;-53
2021/07/14 09:59:08;;;;;;;33.47;25.05;;;;;;;17.71;90.15;100999.16;5080157;28;20055;-53
2021/07/14 10:01:45;;;;;;;37.08;25.65;;;;;;;17.76;90.43;101006.50;5070810;28;20044;-53
2021/07/14 10:04:23;;;;;;;31.88;24.65;;;;;;;17.75;89.97;101000.16;5071200;28;20036;-50
2021/07/14 10:07:11;;;;;;;30.27;21.48;;;;;;;17.77;90.04;101002.59;5071544;28;20095;-54
2021/07/14 10:09:40;;;;;;;31.05;23.83;;;;;;;17.77;89.92;101014.44;5071573;28;20055;-52
2021/07/14 10:12:30;;;;;;;33.65;23.73;;;;;;;17.78;89.90;101007.81;5070553;28;20036;-55
2021/07/14 10:15:20;;;;;;;38.08;26.02;;;;;;;17.76;89.58;101012.00;5071550;28;20048;-54
2021/07/14 10:17:50;;;;;;;31.35;23.20;;;;;;;17.75;89.75;101013.94;5071581;28;20048;-50
2021/07/14 10:20:29;;;;;;;31.73;23.15;;;;;;;17.77;89.91;101011.66;4369010;28;10000678;-56
2021/07/14 10:23:07;;;;;;;30.67;24.20;;;;;;;17.82;90.00;101013.53;5069276;28;20454;-53
2021/07/14 10:25:37;;;;;;;34.28;21.58;;;;;;;17.81;89.29;101007.22;5056309;28;20125;-54
2021/07/14 10:28:06;;;;;;;30.33;21.50;;;;;;;17.83;89.62;101013.22;5069457;28;20762;-53
2021/07/14 10:30:34;;;;;;;31.02;22.80;;;;;;;17.86;89.60;101007.06;5051848;28;20048;-54
2021/07/14 10:33:01;;;;;;;34.92;24.35;;;;;;;17.85;89.33;101012.91;5071475;28;20045;-54
2021/07/14 10:35:31;;;;;;;32.63;23.27;;;;;;;17.83;89.40;101015.97;5071125;28;20148;-53
2021/07/14 10:38:33;;;;;;;29.73;23.25;;;;;;;17.86;89.57;101020.06;5053885;28;20453;-53
2021/07/14 10:41:01;;;;;;;31.45;23.75;;;;;;;17.87;89.66;101024.44;5075559;28;20051;-54
2021/07/14 10:43:31;;;;;;;31.55;21.65;;;;;;;17.85;89.61;100999.13;5075470;28;20051;-52
2021/07/14 10:46:23;;;;;;;29.42;21.95;;;;;;;17.86;89.74;101004.31;5063799;28;20162;-56
2021/07/14 10:48:52;;;;;;;32.20;21.30;;;;;;;17.85;89.71;100997.19;5057143;28;20580;-55
2021/07/14 10:51:22;;;;;;;34.97;23.08;;;;;;;17.89;89.79;101000.13;5057508;28;20415;-52
2021/07/14 10:53:55;;;;;;;31.80;21.40;;;;;;;17.92;89.81;101004.19;5057320;28;20049;-53
2021/07/14 10:56:24;;;;;;;30.80;20.55;;;;;;;17.93;89.68;100994.81;5057431;28;20094;-56
2021/07/14 10:58:52;;;;;;;32.35;22.98;;;;;;;17.92;89.85;100998.69;5057255;28;20059;-52
2021/07/14 11:01:43;;;;;;;34.53;23.95;;;;;;;17.88;89.78;101010.34;5057509;28;20041;-50
2021/07/14 11:04:26;;;;;;;36.80;24.25;;;;;;;17.88;89.94;100996.56;5074550;28;20399;-52
2021/07/14 11:06:54;;;;;;;33.22;21.95;;;;;;;17.91;90.19;100997.06;5074760;28;20052;-52
2021/07/14 11:09:42;;;;;;;32.95;23.60;;;;;;;17.92;90.12;100984.91;5074976;28;20117;-56
2021/07/14 11:12:12;;;;;;;33.15;23.70;;;;;;;17.92;90.24;100993.16;5057293;28;20043;-53
2021/07/14 11:14:50;;;;;;;31.38;22.55;;;;;;;17.88;90.36;100999.31;5074783;28;20039;-56
2021/07/14 11:17:29;;;;;;;36.47;24.23;;;;;;;17.88;90.36;100999.31;5075689;28;20040;-57
2021/07/14 11:20:07;;;;;;;32.42;20.35;;;;;;;17.88;90.46;100999.31;5075107;28;20127;-56
2021/07/14 11:22:45;;;;;;;32.30;22.33;;;;;;;17.88;90.66;101002.06;5074680;28;20044;-57
2021/07/14 11:25:25;;;;;;;34.58;21.08;;;;;;;17.89;90.81;100989.09;5074477;28;20376;-55
2021/07/14 11:28:06;;;;;;;33.10;22.92;;;;;;;17.92;90.54;100993.16;5074769;28;20052;-56
2021/07/14 11:30:40;;;;;;;37.28;23.27;;;;;;;17.90;90.21;100987.19;5074141;28;20040;-55
2021/07/14 11:33:09;;;;;;;36.58;21.77;;;;;;;17.91;90.38;100991.56;5074728;28;20037;-51